sensor_id;sensor_type;location;lat;lon;timestamp;temperature;humidity
23305;DHT22;11821;51.456;8.844;2023-10-13T11:37:20;27.50;99.90
23305;DHT22;11821;51.456;8.844;2023-10-13T11:40:04;25.60;99.90
23305;DHT22;11821;51.456;8.844;2023-10-13T11:42:39;25.50;99.90
23305;DHT22;11821;51.456;8.844;2023-10-13T11:45:10;25.40;99.90
23305;DHT22;11821;51.456;8.844;2023-10-13T11:47:55;25.50;99.90
23305;DHT22;11821;51.456;8.844;2023-10-13T11:50:28;25.50;99.90
23305;DHT22;11821;51.456;8.844;2023-10-13T11:53:03;25.40;99.90
23305;DHT22;11821;51.456;8.844;2023-10-13T11:55:33;25.50;99.90
23305;DHT22;11821;51.456;8.844;2023-10-13T12:05:57;25.40;99.90
23305;DHT22;11821;51.456;8.844;2023-10-13T12:08:45;25.30;99.90
23305;DHT22;11821;51.456;8.844;2023-10-13T12:11:18;25.30;99.90
23305;DHT22;11821;51.456;8.844;2023-10-13T12:14:00;25.40;99.90
23305;DHT22;11821;51.456;8.844;2023-10-13T12:16:37;25.40;99.90
23305;DHT22;11821;51.456;8.844;2023-10-13T12:19:04;25.50;99.90
23305;DHT22;11821;51.456;8.844;2023-10-13T12:21:34;25.60;99.90
23305;DHT22;11821;51.456;8.844;2023-10-13T12:24:03;25.50;99.90
23305;DHT22;11821;51.456;8.844;2023-10-13T12:26:37;25.60;99.90
23305;DHT22;11821;51.456;8.844;2023-10-13T12:29:07;25.50;99.90
23305;DHT22;11821;51.456;8.844;2023-10-13T12:31:43;25.50;99.90
23305;DHT22;11821;51.456;8.844;2023-10-13T12:34:17;25.50;99.90
23305;DHT22;11821;51.456;8.844;2023-10-13T12:36:57;25.70;99.90
23305;DHT22;11821;51.456;8.844;2023-10-13T12:39:31;25.70;99.90
23305;DHT22;11821;51.456;8.844;2023-10-13T12:42:16;25.60;99.90
23305;DHT22;11821;51.456;8.844;2023-10-13T12:45:09;25.60;99.90
23305;DHT22;11821;51.456;8.844;2023-10-13T12:47:53;25.60;99.90
23305;DHT22;11821;51.456;8.844;2023-10-13T12:50:38;25.60;99.90
23305;DHT22;11821;51.456;8.844;2023-10-13T12:53:24;25.60;99.90
23305;DHT22;11821;51.456;8.844;2023-10-13T12:55:56;25.60;99.90
23305;DHT22;11821;51.456;8.844;2023-10-13T12:58:23;25.70;99.90
23305;DHT22;11821;51.456;8.844;2023-10-13T13:00:53;25.70;99.90
23305;DHT22;11821;51.456;8.844;2023-10-13T13:03:31;25.70;99.90
23305;DHT22;11821;51.456;8.844;2023-10-13T13:05:58;25.80;99.90
23305;DHT22;11821;51.456;8.844;2023-10-13T13:08:25;25.90;99.90
23305;DHT22;11821;51.456;8.844;2023-10-13T13:10:51;26.20;99.90
23305;DHT22;11821;51.456;8.844;2023-10-13T13:13:18;26.20;99.90
23305;DHT22;11821;51.456;8.844;2023-10-13T13:15:50;26.20;99.90
23305;DHT22;11821;51.456;8.844;2023-10-13T13:18:16;26.30;99.90
23305;DHT22;11821;51.456;8.844;2023-10-13T13:20:43;26.10;99.90
23305;DHT22;11821;51.456;8.844;2023-10-13T13:23:19;25.80;99.90
23305;DHT22;11821;51.456;8.844;2023-10-13T13:25:46;25.70;99.90
23305;DHT22;11821;51.456;8.844;2023-10-13T13:28:12;25.60;99.90
23305;DHT22;11821;51.456;8.844;2023-10-13T13:30:41;25.60;99.90
23305;DHT22;11821;51.456;8.844;2023-10-13T13:33:07;25.60;99.90
23305;DHT22;11821;51.456;8.844;2023-10-13T13:35:40;25.60;99.90
23305;DHT22;11821;51.456;8.844;2023-10-13T13:38:09;25.70;99.90
23305;DHT22;11821;51.456;8.844;2023-10-13T13:40:58;25.80;99.90
23305;DHT22;11821;51.456;8.844;2023-10-13T13:43:24;25.50;99.90
23305;DHT22;11821;51.456;8.844;2023-10-13T13:46:26;25.50;99.90
23305;DHT22;11821;51.456;8.844;2023-10-13T13:48:59;25.40;99.90
23305;DHT22;11821;51.456;8.844;2023-10-13T13:51:27;25.40;99.90
23305;DHT22;11821;51.456;8.844;2023-10-13T13:53:55;25.30;99.90
23305;DHT22;11821;51.456;8.844;2023-10-13T13:56:22;25.40;99.90
23305;DHT22;11821;51.456;8.844;2023-10-13T13:58:52;25.40;99.90
23305;DHT22;11821;51.456;8.844;2023-10-13T14:01:22;25.50;99.90
23305;DHT22;11821;51.456;8.844;2023-10-13T14:03:49;25.40;99.90
23305;DHT22;11821;51.456;8.844;2023-10-13T14:06:20;25.40;99.90
23305;DHT22;11821;51.456;8.844;2023-10-13T14:08:58;25.50;99.90
23305;DHT22;11821;51.456;8.844;2023-10-13T14:11:59;25.60;99.90
23305;DHT22;11821;51.456;8.844;2023-10-13T14:14:44;25.70;99.90
23305;DHT22;11821;51.456;8.844;2023-10-13T14:17:16;25.50;99.90
23305;DHT22;11821;51.456;8.844;2023-10-13T14:32:13;25.50;99.90
23305;DHT22;11821;51.456;8.844;2023-10-13T14:34:42;25.20;99.90
23305;DHT22;11821;51.456;8.844;2023-10-13T14:37:09;25.30;99.90
23305;DHT22;11821;51.456;8.844;2023-10-13T14:39:42;25.30;99.90
23305;DHT22;11821;51.456;8.844;2023-10-13T14:42:08;25.30;99.90
23305;DHT22;11821;51.456;8.844;2023-10-13T14:44:35;25.40;99.90
23305;DHT22;11821;51.456;8.844;2023-10-13T14:47:03;25.40;99.90
23305;DHT22;11821;51.456;8.844;2023-10-13T14:49:31;25.40;99.90
23305;DHT22;11821;51.456;8.844;2023-10-13T14:51:58;25.40;99.90
23305;DHT22;11821;51.456;8.844;2023-10-13T14:54:25;25.40;99.90
23305;DHT22;11821;51.456;8.844;2023-10-13T14:57:02;25.40;99.90
23305;DHT22;11821;51.456;8.844;2023-10-13T14:59:29;25.30;99.90
23305;DHT22;11821;51.456;8.844;2023-10-13T15:02:04;25.40;99.90
23305;DHT22;11821;51.456;8.844;2023-10-13T15:04:30;25.50;99.90
23305;DHT22;11821;51.456;8.844;2023-10-13T15:07:02;25.60;99.90
23305;DHT22;11821;51.456;8.844;2023-10-13T15:09:29;25.60;99.90
23305;DHT22;11821;51.456;8.844;2023-10-13T15:11:55;25.60;99.90
23305;DHT22;11821;51.456;8.844;2023-10-13T15:14:22;25.60;99.90
23305;DHT22;11821;51.456;8.844;2023-10-13T15:16:49;25.60;99.90
23305;DHT22;11821;51.456;8.844;2023-10-13T15:19:16;25.50;99.90
23305;DHT22;11821;51.456;8.844;2023-10-13T15:21:45;25.40;99.90
23305;DHT22;11821;51.456;8.844;2023-10-13T15:24:16;25.30;99.90
